sensor_id;sensor_type;location;lat;lon;timestamp;temperature;humidity
64143;DHT22;50437;51.970;5.904;2022-07-30T00:01:11;17.80;87.20
64143;DHT22;50437;51.970;5.904;2022-07-30T00:03:37;17.70;87.00
64143;DHT22;50437;51.970;5.904;2022-07-30T00:06:03;17.70;86.70
64143;DHT22;50437;51.970;5.904;2022-07-30T00:08:29;17.60;87.90
64143;DHT22;50437;51.970;5.904;2022-07-30T00:10:55;17.60;88.10
64143;DHT22;50437;51.970;5.904;2022-07-30T00:13:21;17.60;89.20
64143;DHT22;50437;51.970;5.904;2022-07-30T00:15:47;17.60;88.50
64143;DHT22;50437;51.970;5.904;2022-07-30T00:18:13;17.60;89.10
64143;DHT22;50437;51.970;5.904;2022-07-30T00:20:39;17.60;89.80
64143;DHT22;50437;51.970;5.904;2022-07-30T00:23:05;17.60;90.10
64143;DHT22;50437;51.970;5.904;2022-07-30T00:25:31;17.60;90.00
64143;DHT22;50437;51.970;5.904;2022-07-30T00:27:57;17.50;91.00
64143;DHT22;50437;51.970;5.904;2022-07-30T00:30:23;17.40;90.90
64143;DHT22;50437;51.970;5.904;2022-07-30T00:32:49;17.40;91.20
64143;DHT22;50437;51.970;5.904;2022-07-30T00:35:15;17.30;91.30
64143;DHT22;50437;51.970;5.904;2022-07-30T00:37:42;17.40;91.20
64143;DHT22;50437;51.970;5.904;2022-07-30T00:40:08;17.40;91.30
64143;DHT22;50437;51.970;5.904;2022-07-30T00:42:41;17.40;91.40
64143;DHT22;50437;51.970;5.904;2022-07-30T00:45:08;17.40;91.40
64143;DHT22;50437;51.970;5.904;2022-07-30T00:47:34;17.40;91.40
64143;DHT22;50437;51.970;5.904;2022-07-30T00:50:00;17.40;91.20
64143;DHT22;50437;51.970;5.904;2022-07-30T00:52:29;17.30;91.20
64143;DHT22;50437;51.970;5.904;2022-07-30T00:54:56;17.40;91.20
64143;DHT22;50437;51.970;5.904;2022-07-30T00:57:22;17.30;91.10
64143;DHT22;50437;51.970;5.904;2022-07-30T00:59:48;17.20;91.60
64143;DHT22;50437;51.970;5.904;2022-07-30T01:02:13;17.20;91.80
64143;DHT22;50437;51.970;5.904;2022-07-30T01:04:39;17.20;91.40
64143;DHT22;50437;51.970;5.904;2022-07-30T01:07:05;17.20;91.60
64143;DHT22;50437;51.970;5.904;2022-07-30T01:09:31;17.20;91.50
64143;DHT22;50437;51.970;5.904;2022-07-30T01:11:57;17.20;91.60
64143;DHT22;50437;51.970;5.904;2022-07-30T01:14:24;17.20;91.60
64143;DHT22;50437;51.970;5.904;2022-07-30T01:16:50;17.20;91.50
64143;DHT22;50437;51.970;5.904;2022-07-30T01:19:20;17.20;91.50
64143;DHT22;50437;51.970;5.904;2022-07-30T01:22:08;17.20;91.40
64143;DHT22;50437;51.970;5.904;2022-07-30T01:24:37;17.20;91.40
64143;DHT22;50437;51.970;5.904;2022-07-30T01:27:04;17.20;91.40
64143;DHT22;50437;51.970;5.904;2022-07-30T01:29:31;17.10;91.80
64143;DHT22;50437;51.970;5.904;2022-07-30T01:31:58;17.10;91.70
64143;DHT22;50437;51.970;5.904;2022-07-30T01:34:26;17.10;91.60
64143;DHT22;50437;51.970;5.904;2022-07-30T01:36:55;17.10;91.50
64143;DHT22;50437;51.970;5.904;2022-07-30T01:39:22;17.00;91.60
64143;DHT22;50437;51.970;5.904;2022-07-30T01:41:49;17.00;91.60
64143;DHT22;50437;51.970;5.904;2022-07-30T01:44:17;17.00;91.70
64143;DHT22;50437;51.970;5.904;2022-07-30T01:46:43;17.00;91.60
64143;DHT22;50437;51.970;5.904;2022-07-30T01:49:11;17.00;91.40
64143;DHT22;50437;51.970;5.904;2022-07-30T01:51:37;17.00;91.60
64143;DHT22;50437;51.970;5.904;2022-07-30T01:54:06;17.00;91.60
64143;DHT22;50437;51.970;5.904;2022-07-30T01:56:32;17.00;91.70
64143;DHT22;50437;51.970;5.904;2022-07-30T01:58:59;17.00;91.50
64143;DHT22;50437;51.970;5.904;2022-07-30T02:01:27;17.00;91.70
64143;DHT22;50437;51.970;5.904;2022-07-30T02:03:57;17.00;91.80
64143;DHT22;50437;51.970;5.904;2022-07-30T02:06:29;17.00;91.50
64143;DHT22;50437;51.970;5.904;2022-07-30T02:09:00;17.00;91.50
64143;DHT22;50437;51.970;5.904;2022-07-30T02:11:28;17.10;91.40
64143;DHT22;50437;51.970;5.904;2022-07-30T02:14:16;17.20;91.20
64143;DHT22;50437;51.970;5.904;2022-07-30T02:16:44;17.20;91.10
64143;DHT22;50437;51.970;5.904;2022-07-30T02:19:13;17.20;91.00
64143;DHT22;50437;51.970;5.904;2022-07-30T02:21:43;17.30;91.00
64143;DHT22;50437;51.970;5.904;2022-07-30T02:24:11;17.30;91.00
64143;DHT22;50437;51.970;5.904;2022-07-30T02:26:40;17.30;91.10
64143;DHT22;50437;51.970;5.904;2022-07-30T02:29:06;17.40;90.90
64143;DHT22;50437;51.970;5.904;2022-07-30T02:31:33;17.40;90.90
64143;DHT22;50437;51.970;5.904;2022-07-30T02:34:02;17.20;91.40
64143;DHT22;50437;51.970;5.904;2022-07-30T02:36:29;17.20;91.50
64143;DHT22;50437;51.970;5.904;2022-07-30T02:38:56;17.30;91.40
64143;DHT22;50437;51.970;5.904;2022-07-30T02:41:24;17.30;91.30
64143;DHT22;50437;51.970;5.904;2022-07-30T02:43:51;17.30;91.10
64143;DHT22;50437;51.970;5.904;2022-07-30T02:46:18;17.40;91.10
64143;DHT22;50437;51.970;5.904;2022-07-30T02:49:15;17.30;91.10
64143;DHT22;50437;51.970;5.904;2022-07-30T02:51:42;17.30;91.30
64143;DHT22;50437;51.970;5.904;2022-07-30T02:54:11;17.30;91.30
64143;DHT22;50437;51.970;5.904;2022-07-30T02:56:39;17.20;91.40
64143;DHT22;50437;51.970;5.904;2022-07-30T02:59:05;17.30;91.30
64143;DHT22;50437;51.970;5.904;2022-07-30T03:01:31;17.20;91.30
64143;DHT22;50437;51.970;5.904;2022-07-30T03:03:58;17.20;91.40
64143;DHT22;50437;51.970;5.904;2022-07-30T03:06:25;17.20;91.50
64143;DHT22;50437;51.970;5.904;2022-07-30T03:08:52;17.20;91.60
64143;DHT22;50437;51.970;5.904;2022-07-30T03:11:18;17.10;91.50
64143;DHT22;50437;51.970;5.904;2022-07-30T03:13:45;17.10;91.50
64143;DHT22;50437;51.970;5.904;2022-07-30T03:16:11;17.10;91.60
64143;DHT22;50437;51.970;5.904;2022-07-30T03:18:38;16.80;91.90
64143;DHT22;50437;51.970;5.904;2022-07-30T03:21:06;16.80;92.50
64143;DHT22;50437;51.970;5.904;2022-07-30T03:23:32;16.70;92.40
64143;DHT22;50437;51.970;5.904;2022-07-30T03:26:00;16.80;92.40
64143;DHT22;50437;51.970;5.904;2022-07-30T03:28:30;16.70;92.50
64143;DHT22;50437;51.970;5.904;2022-07-30T03:30:57;16.70;92.50
64143;DHT22;50437;51.970;5.904;2022-07-30T03:33:23;16.70;92.70
64143;DHT22;50437;51.970;5.904;2022-07-30T03:35:49;16.70;92.60
64143;DHT22;50437;51.970;5.904;2022-07-30T03:38:16;16.70;92.60
64143;DHT22;50437;51.970;5.904;2022-07-30T03:40:43;16.70;92.40
64143;DHT22;50437;51.970;5.904;2022-07-30T03:43:11;16.70;92.40
64143;DHT22;50437;51.970;5.904;2022-07-30T03:45:39;16.70;92.40
64143;DHT22;50437;51.970;5.904;2022-07-30T03:48:07;16.60;92.50
64143;DHT22;50437;51.970;5.904;2022-07-30T03:50:34;16.60;92.60
64143;DHT22;50437;51.970;5.904;2022-07-30T03:53:05;16.60;92.80
64143;DHT22;50437;51.970;5.904;2022-07-30T03:55:34;16.50;92.70
64143;DHT22;50437;51.970;5.904;2022-07-30T03:58:18;16.50;92.60
64143;DHT22;50437;51.970;5.904;2022-07-30T04:00:48;16.50;92.60
64143;DHT22;50437;51.970;5.904;2022-07-30T04:03:24;16.50;92.20
64143;DHT22;50437;51.970;5.904;2022-07-30T04:05:52;16.60;92.30
64143;DHT22;50437;51.970;5.904;2022-07-30T04:08:18;16.60;92.10
64143;DHT22;50437;51.970;5.904;2022-07-30T04:10:44;16.60;91.70
64143;DHT22;50437;51.970;5.904;2022-07-30T04:13:36;16.50;92.20
64143;DHT22;50437;51.970;5.904;2022-07-30T04:18:52;16.60;92.00
64143;DHT22;50437;51.970;5.904;2022-07-30T04:21:19;16.60;91.90
64143;DHT22;50437;51.970;5.904;2022-07-30T04:23:48;16.70;91.70
64143;DHT22;50437;51.970;5.904;2022-07-30T04:26:15;16.70;91.60
64143;DHT22;50437;51.970;5.904;2022-07-30T04:28:42;16.70;91.50
64143;DHT22;50437;51.970;5.904;2022-07-30T04:31:09;16.70;91.30
64143;DHT22;50437;51.970;5.904;2022-07-30T04:33:36;16.70;91.40
64143;DHT22;50437;51.970;5.904;2022-07-30T04:36:07;16.80;91.40
64143;DHT22;50437;51.970;5.904;2022-07-30T04:38:37;16.70;91.40
64143;DHT22;50437;51.970;5.904;2022-07-30T04:41:03;16.70;91.50
64143;DHT22;50437;51.970;5.904;2022-07-30T04:43:43;16.70;91.50
64143;DHT22;50437;51.970;5.904;2022-07-30T04:46:09;16.70;91.60
64143;DHT22;50437;51.970;5.904;2022-07-30T04:48:35;16.80;91.60
64143;DHT22;50437;51.970;5.904;2022-07-30T04:51:11;16.80;91.40
64143;DHT22;50437;51.970;5.904;2022-07-30T04:53:37;16.80;91.90
64143;DHT22;50437;51.970;5.904;2022-07-30T04:56:09;16.80;91.90
64143;DHT22;50437;51.970;5.904;2022-07-30T04:58:36;16.80;92.00
64143;DHT22;50437;51.970;5.904;2022-07-30T05:01:02;16.80;92.00
64143;DHT22;50437;51.970;5.904;2022-07-30T05:03:30;16.80;92.10
64143;DHT22;50437;51.970;5.904;2022-07-30T05:05:56;16.80;91.90
64143;DHT22;50437;51.970;5.904;2022-07-30T05:08:25;16.90;92.00
64143;DHT22;50437;51.970;5.904;2022-07-30T05:10:52;16.90;91.80
64143;DHT22;50437;51.970;5.904;2022-07-30T05:13:18;17.00;91.90
64143;DHT22;50437;51.970;5.904;2022-07-30T05:15:45;17.00;91.80
64143;DHT22;50437;51.970;5.904;2022-07-30T05:18:12;17.00;91.80
64143;DHT22;50437;51.970;5.904;2022-07-30T05:20:41;17.00;91.50
64143;DHT22;50437;51.970;5.904;2022-07-30T05:23:17;16.90;91.60
64143;DHT22;50437;51.970;5.904;2022-07-30T05:25:50;16.80;91.80
64143;DHT22;50437;51.970;5.904;2022-07-30T05:28:27;16.80;91.90
64143;DHT22;50437;51.970;5.904;2022-07-30T05:30:53;16.80;91.60
64143;DHT22;50437;51.970;5.904;2022-07-30T05:33:19;16.80;91.80
64143;DHT22;50437;51.970;5.904;2022-07-30T05:35:46;16.80;91.60
64143;DHT22;50437;51.970;5.904;2022-07-30T05:38:12;16.80;91.50
64143;DHT22;50437;51.970;5.904;2022-07-30T05:40:51;16.90;91.30
64143;DHT22;50437;51.970;5.904;2022-07-30T05:43:35;16.90;91.20
64143;DHT22;50437;51.970;5.904;2022-07-30T05:46:01;16.90;91.10
64143;DHT22;50437;51.970;5.904;2022-07-30T05:48:28;17.00;91.20
64143;DHT22;50437;51.970;5.904;2022-07-30T05:50:56;16.90;91.20
64143;DHT22;50437;51.970;5.904;2022-07-30T05:53:21;17.00;90.90
64143;DHT22;50437;51.970;5.904;2022-07-30T05:56:23;17.10;90.80
64143;DHT22;50437;51.970;5.904;2022-07-30T05:59:02;17.20;90.60
64143;DHT22;50437;51.970;5.904;2022-07-30T06:01:54;17.30;90.20
64143;DHT22;50437;51.970;5.904;2022-07-30T06:04:26;17.30;90.30
64143;DHT22;50437;51.970;5.904;2022-07-30T06:06:57;17.30;90.00
64143;DHT22;50437;51.970;5.904;2022-07-30T06:09:26;17.30;90.00
64143;DHT22;50437;51.970;5.904;2022-07-30T06:11:52;17.40;89.20
64143;DHT22;50437;51.970;5.904;2022-07-30T06:14:18;17.50;89.00
64143;DHT22;50437;51.970;5.904;2022-07-30T06:16:44;17.50;88.80
64143;DHT22;50437;51.970;5.904;2022-07-30T06:19:11;17.50;88.30
64143;DHT22;50437;51.970;5.904;2022-07-30T06:21:41;17.50;88.40
64143;DHT22;50437;51.970;5.904;2022-07-30T06:24:10;17.50;88.50
64143;DHT22;50437;51.970;5.904;2022-07-30T06:26:47;17.70;88.40
64143;DHT22;50437;51.970;5.904;2022-07-30T06:29:13;17.70;87.30
64143;DHT22;50437;51.970;5.904;2022-07-30T06:31:39;17.60;86.30
64143;DHT22;50437;51.970;5.904;2022-07-30T06:34:07;17.70;86.40
64143;DHT22;50437;51.970;5.904;2022-07-30T06:36:37;17.70;87.20
64143;DHT22;50437;51.970;5.904;2022-07-30T06:39:08;17.60;85.70
64143;DHT22;50437;51.970;5.904;2022-07-30T06:42:13;17.70;85.90
64143;DHT22;50437;51.970;5.904;2022-07-30T06:44:57;17.80;85.70
64143;DHT22;50437;51.970;5.904;2022-07-30T06:47:23;17.80;84.50
64143;DHT22;50437;51.970;5.904;2022-07-30T06:49:55;17.80;84.40
64143;DHT22;50437;51.970;5.904;2022-07-30T06:52:21;17.80;84.30
64143;DHT22;50437;51.970;5.904;2022-07-30T06:54:50;17.90;84.90
64143;DHT22;50437;51.970;5.904;2022-07-30T06:57:45;18.00;83.60
64143;DHT22;50437;51.970;5.904;2022-07-30T07:00:31;18.00;83.90
64143;DHT22;50437;51.970;5.904;2022-07-30T07:03:03;18.10;82.30
64143;DHT22;50437;51.970;5.904;2022-07-30T07:05:35;18.20;82.00
64143;DHT22;50437;51.970;5.904;2022-07-30T07:08:01;18.30;81.40
64143;DHT22;50437;51.970;5.904;2022-07-30T07:10:32;18.40;81.00
64143;DHT22;50437;51.970;5.904;2022-07-30T07:13:14;19.90;75.30
64143;DHT22;50437;51.970;5.904;2022-07-30T07:15:40;22.80;65.20
64143;DHT22;50437;51.970;5.904;2022-07-30T07:18:11;25.30;55.50
64143;DHT22;50437;51.970;5.904;2022-07-30T07:20:38;26.80;50.40
64143;DHT22;50437;51.970;5.904;2022-07-30T07:23:07;28.20;45.90
64143;DHT22;50437;51.970;5.904;2022-07-30T07:25:33;29.30;42.00
64143;DHT22;50437;51.970;5.904;2022-07-30T07:27:59;29.80;40.10
64143;DHT22;50437;51.970;5.904;2022-07-30T07:30:25;30.50;38.50
64143;DHT22;50437;51.970;5.904;2022-07-30T07:32:51;30.10;38.00
64143;DHT22;50437;51.970;5.904;2022-07-30T07:35:17;29.30;38.50
64143;DHT22;50437;51.970;5.904;2022-07-30T07:37:47;30.30;38.00
64143;DHT22;50437;51.970;5.904;2022-07-30T07:40:19;30.70;37.70
64143;DHT22;50437;51.970;5.904;2022-07-30T07:42:45;30.60;35.50
64143;DHT22;50437;51.970;5.904;2022-07-30T07:45:13;30.50;36.30
64143;DHT22;50437;51.970;5.904;2022-07-30T07:47:47;30.80;35.90
64143;DHT22;50437;51.970;5.904;2022-07-30T07:50:21;31.20;34.70
64143;DHT22;50437;51.970;5.904;2022-07-30T07:52:47;30.70;34.70
64143;DHT22;50437;51.970;5.904;2022-07-30T07:55:13;31.10;34.20
64143;DHT22;50437;51.970;5.904;2022-07-30T07:57:40;31.30;34.20
64143;DHT22;50437;51.970;5.904;2022-07-30T08:00:07;31.30;33.90
64143;DHT22;50437;51.970;5.904;2022-07-30T08:02:34;31.50;33.70
64143;DHT22;50437;51.970;5.904;2022-07-30T08:05:07;31.30;33.40
64143;DHT22;50437;51.970;5.904;2022-07-30T08:07:59;31.20;33.50
64143;DHT22;50437;51.970;5.904;2022-07-30T08:10:44;30.40;33.00
64143;DHT22;50437;51.970;5.904;2022-07-30T08:13:13;30.20;32.70
64143;DHT22;50437;51.970;5.904;2022-07-30T08:16:00;30.00;34.80
64143;DHT22;50437;51.970;5.904;2022-07-30T08:18:46;30.30;33.80
64143;DHT22;50437;51.970;5.904;2022-07-30T08:21:26;30.20;33.10
64143;DHT22;50437;51.970;5.904;2022-07-30T08:23:52;30.10;34.90
64143;DHT22;50437;51.970;5.904;2022-07-30T08:26:18;30.80;33.30
64143;DHT22;50437;51.970;5.904;2022-07-30T08:28:44;31.30;34.00
64143;DHT22;50437;51.970;5.904;2022-07-30T08:31:11;31.50;29.40
64143;DHT22;50437;51.970;5.904;2022-07-30T08:33:38;31.80;30.50
64143;DHT22;50437;51.970;5.904;2022-07-30T08:36:04;31.10;29.80
64143;DHT22;50437;51.970;5.904;2022-07-30T08:38:31;30.70;32.30
64143;DHT22;50437;51.970;5.904;2022-07-30T08:40:57;30.70;31.20
64143;DHT22;50437;51.970;5.904;2022-07-30T08:43:24;30.90;31.80
64143;DHT22;50437;51.970;5.904;2022-07-30T08:45:52;31.10;30.80
64143;DHT22;50437;51.970;5.904;2022-07-30T08:48:39;31.20;30.00
64143;DHT22;50437;51.970;5.904;2022-07-30T08:51:06;30.70;29.50
64143;DHT22;50437;51.970;5.904;2022-07-30T08:53:32;31.50;30.80
64143;DHT22;50437;51.970;5.904;2022-07-30T08:55:59;31.70;29.60
64143;DHT22;50437;51.970;5.904;2022-07-30T08:58:29;32.00;30.90
64143;DHT22;50437;51.970;5.904;2022-07-30T09:00:56;32.60;29.60
64143;DHT22;50437;51.970;5.904;2022-07-30T09:03:22;32.60;29.80
64143;DHT22;50437;51.970;5.904;2022-07-30T09:05:48;33.20;28.60
64143;DHT22;50437;51.970;5.904;2022-07-30T09:08:15;33.50;27.10
64143;DHT22;50437;51.970;5.904;2022-07-30T09:10:44;33.60;26.60
64143;DHT22;50437;51.970;5.904;2022-07-30T09:15:53;33.60;25.90
64143;DHT22;50437;51.970;5.904;2022-07-30T09:18:30;32.80;26.20
64143;DHT22;50437;51.970;5.904;2022-07-30T09:21:00;32.80;26.40
64143;DHT22;50437;51.970;5.904;2022-07-30T09:23:27;32.90;26.90
64143;DHT22;50437;51.970;5.904;2022-07-30T09:26:16;32.90;26.90
64143;DHT22;50437;51.970;5.904;2022-07-30T09:28:44;32.60;27.50
64143;DHT22;50437;51.970;5.904;2022-07-30T09:31:13;32.20;27.40
64143;DHT22;50437;51.970;5.904;2022-07-30T09:33:58;32.10;28.20
64143;DHT22;50437;51.970;5.904;2022-07-30T09:36:42;32.70;27.70
64143;DHT22;50437;51.970;5.904;2022-07-30T09:39:39;32.30;26.40
64143;DHT22;50437;51.970;5.904;2022-07-30T09:42:19;32.30;28.20
64143;DHT22;50437;51.970;5.904;2022-07-30T09:44:46;32.50;26.30
64143;DHT22;50437;51.970;5.904;2022-07-30T09:50:02;32.60;27.10
64143;DHT22;50437;51.970;5.904;2022-07-30T09:52:28;32.10;27.40
64143;DHT22;50437;51.970;5.904;2022-07-30T09:54:54;31.70;29.60
64143;DHT22;50437;51.970;5.904;2022-07-30T09:57:23;32.30;26.90
64143;DHT22;50437;51.970;5.904;2022-07-30T09:59:49;31.90;26.90
64143;DHT22;50437;51.970;5.904;2022-07-30T10:02:17;31.60;26.80
64143;DHT22;50437;51.970;5.904;2022-07-30T10:05:08;31.90;28.50
64143;DHT22;50437;51.970;5.904;2022-07-30T10:07:35;32.60;26.90
64143;DHT22;50437;51.970;5.904;2022-07-30T10:10:02;32.80;27.00
64143;DHT22;50437;51.970;5.904;2022-07-30T10:12:31;32.40;25.90
64143;DHT22;50437;51.970;5.904;2022-07-30T10:14:57;32.10;26.80
64143;DHT22;50437;51.970;5.904;2022-07-30T10:17:24;31.90;28.40
64143;DHT22;50437;51.970;5.904;2022-07-30T10:20:25;31.30;28.10
64143;DHT22;50437;51.970;5.904;2022-07-30T10:23:10;31.40;27.60
64143;DHT22;50437;51.970;5.904;2022-07-30T10:25:59;31.90;26.50
64143;DHT22;50437;51.970;5.904;2022-07-30T10:28:49;32.30;25.90
64143;DHT22;50437;51.970;5.904;2022-07-30T10:31:15;32.30;27.70
64143;DHT22;50437;51.970;5.904;2022-07-30T10:33:41;32.30;27.70
64143;DHT22;50437;51.970;5.904;2022-07-30T10:36:09;32.40;27.70
64143;DHT22;50437;51.970;5.904;2022-07-30T10:38:36;32.70;26.50
64143;DHT22;50437;51.970;5.904;2022-07-30T10:41:23;32.70;25.70
64143;DHT22;50437;51.970;5.904;2022-07-30T10:44:09;32.90;25.90
64143;DHT22;50437;51.970;5.904;2022-07-30T10:49:12;32.60;25.50
64143;DHT22;50437;51.970;5.904;2022-07-30T10:51:46;32.90;25.60
64143;DHT22;50437;51.970;5.904;2022-07-30T10:57:04;32.70;26.10
64143;DHT22;50437;51.970;5.904;2022-07-30T11:00:06;32.50;25.90
64143;DHT22;50437;51.970;5.904;2022-07-30T11:02:24;32.40;24.90
64143;DHT22;50437;51.970;5.904;2022-07-30T11:07:36;32.20;25.00
64143;DHT22;50437;51.970;5.904;2022-07-30T11:10:02;32.20;26.30
64143;DHT22;50437;51.970;5.904;2022-07-30T11:13:02;32.10;26.30
64143;DHT22;50437;51.970;5.904;2022-07-30T11:15:21;31.50;25.20
64143;DHT22;50437;51.970;5.904;2022-07-30T11:18:04;30.90;26.60
64143;DHT22;50437;51.970;5.904;2022-07-30T11:20:31;30.60;27.70
64143;DHT22;50437;51.970;5.904;2022-07-30T11:23:07;30.30;29.30
64143;DHT22;50437;51.970;5.904;2022-07-30T11:27:59;30.00;28.20
64143;DHT22;50437;51.970;5.904;2022-07-30T11:32:55;30.00;29.30
64143;DHT22;50437;51.970;5.904;2022-07-30T11:40:23;29.70;28.10
64143;DHT22;50437;51.970;5.904;2022-07-30T11:42:50;29.60;30.00
64143;DHT22;50437;51.970;5.904;2022-07-30T11:47:46;29.40;30.40
64143;DHT22;50437;51.970;5.904;2022-07-30T11:50:28;29.20;29.60
64143;DHT22;50437;51.970;5.904;2022-07-30T11:52:56;28.90;30.80
64143;DHT22;50437;51.970;5.904;2022-07-30T11:55:26;28.50;31.70
64143;DHT22;50437;51.970;5.904;2022-07-30T11:57:56;28.50;31.00
64143;DHT22;50437;51.970;5.904;2022-07-30T12:00:23;28.50;31.90
64143;DHT22;50437;51.970;5.904;2022-07-30T12:02:49;28.70;32.60
64143;DHT22;50437;51.970;5.904;2022-07-30T12:05:16;28.90;32.00
64143;DHT22;50437;51.970;5.904;2022-07-30T12:07:47;29.50;32.60
64143;DHT22;50437;51.970;5.904;2022-07-30T12:10:17;29.60;31.20
64143;DHT22;50437;51.970;5.904;2022-07-30T12:12:44;29.60;31.60
64143;DHT22;50437;51.970;5.904;2022-07-30T12:15:26;29.60;31.80
64143;DHT22;50437;51.970;5.904;2022-07-30T12:17:52;29.90;30.70
64143;DHT22;50437;51.970;5.904;2022-07-30T12:20:18;30.00;30.30
64143;DHT22;50437;51.970;5.904;2022-07-30T12:22:44;30.30;29.30
64143;DHT22;50437;51.970;5.904;2022-07-30T12:25:11;29.80;30.20
64143;DHT22;50437;51.970;5.904;2022-07-30T12:27:38;29.60;29.50
64143;DHT22;50437;51.970;5.904;2022-07-30T12:30:04;29.50;30.80
64143;DHT22;50437;51.970;5.904;2022-07-30T12:32:30;30.00;30.10
64143;DHT22;50437;51.970;5.904;2022-07-30T12:34:57;29.90;31.30
64143;DHT22;50437;51.970;5.904;2022-07-30T12:37:23;30.20;30.20
64143;DHT22;50437;51.970;5.904;2022-07-30T12:40:11;30.10;30.80
64143;DHT22;50437;51.970;5.904;2022-07-30T12:42:36;30.40;29.90
64143;DHT22;50437;51.970;5.904;2022-07-30T12:45:04;30.00;30.80
64143;DHT22;50437;51.970;5.904;2022-07-30T12:47:31;30.00;29.60
64143;DHT22;50437;51.970;5.904;2022-07-30T12:49:59;29.50;29.90
64143;DHT22;50437;51.970;5.904;2022-07-30T12:52:27;29.00;30.10
64143;DHT22;50437;51.970;5.904;2022-07-30T12:54:57;28.70;31.30
64143;DHT22;50437;51.970;5.904;2022-07-30T12:57:23;28.20;32.00
64143;DHT22;50437;51.970;5.904;2022-07-30T12:59:59;28.60;32.40
64143;DHT22;50437;51.970;5.904;2022-07-30T13:02:29;29.20;31.70
64143;DHT22;50437;51.970;5.904;2022-07-30T13:04:55;29.50;31.00
64143;DHT22;50437;51.970;5.904;2022-07-30T13:07:21;29.40;30.20
64143;DHT22;50437;51.970;5.904;2022-07-30T13:09:47;29.70;30.20
64143;DHT22;50437;51.970;5.904;2022-07-30T13:12:30;29.70;29.90
64143;DHT22;50437;51.970;5.904;2022-07-30T13:14:56;29.40;30.80
64143;DHT22;50437;51.970;5.904;2022-07-30T13:17:22;29.40;31.20
64143;DHT22;50437;51.970;5.904;2022-07-30T13:19:48;29.50;30.30
64143;DHT22;50437;51.970;5.904;2022-07-30T13:22:14;29.10;30.40
64143;DHT22;50437;51.970;5.904;2022-07-30T13:24:40;29.00;30.60
64143;DHT22;50437;51.970;5.904;2022-07-30T13:27:06;28.70;31.20
64143;DHT22;50437;51.970;5.904;2022-07-30T13:29:31;28.80;31.90
64143;DHT22;50437;51.970;5.904;2022-07-30T13:31:57;29.10;30.20
64143;DHT22;50437;51.970;5.904;2022-07-30T13:34:23;28.80;30.90
64143;DHT22;50437;51.970;5.904;2022-07-30T13:36:50;28.50;31.70
64143;DHT22;50437;51.970;5.904;2022-07-30T13:39:16;28.40;30.90
64143;DHT22;50437;51.970;5.904;2022-07-30T13:41:42;28.00;32.10
64143;DHT22;50437;51.970;5.904;2022-07-30T13:44:08;27.80;32.40
64143;DHT22;50437;51.970;5.904;2022-07-30T13:46:34;27.90;32.80
64143;DHT22;50437;51.970;5.904;2022-07-30T13:49:03;27.90;34.20
64143;DHT22;50437;51.970;5.904;2022-07-30T13:51:29;28.10;31.80
64143;DHT22;50437;51.970;5.904;2022-07-30T13:53:55;28.30;32.00
64143;DHT22;50437;51.970;5.904;2022-07-30T13:56:21;28.60;31.40
64143;DHT22;50437;51.970;5.904;2022-07-30T13:58:47;28.50;30.50
64143;DHT22;50437;51.970;5.904;2022-07-30T14:01:13;28.50;31.50
64143;DHT22;50437;51.970;5.904;2022-07-30T14:03:39;28.80;30.70
64143;DHT22;50437;51.970;5.904;2022-07-30T14:06:05;28.60;30.60
64143;DHT22;50437;51.970;5.904;2022-07-30T14:08:31;28.90;30.50
64143;DHT22;50437;51.970;5.904;2022-07-30T14:10:58;29.40;30.10
64143;DHT22;50437;51.970;5.904;2022-07-30T14:13:24;29.70;30.10
64143;DHT22;50437;51.970;5.904;2022-07-30T14:15:50;30.00;28.80
64143;DHT22;50437;51.970;5.904;2022-07-30T14:18:16;30.10;29.40
64143;DHT22;50437;51.970;5.904;2022-07-30T14:20:41;30.10;28.60
64143;DHT22;50437;51.970;5.904;2022-07-30T14:23:07;29.60;29.10
64143;DHT22;50437;51.970;5.904;2022-07-30T14:25:34;28.80;30.50
64143;DHT22;50437;51.970;5.904;2022-07-30T14:28:00;28.60;31.50
64143;DHT22;50437;51.970;5.904;2022-07-30T14:30:26;28.50;30.90
64143;DHT22;50437;51.970;5.904;2022-07-30T14:32:52;28.50;31.60
64143;DHT22;50437;51.970;5.904;2022-07-30T14:35:18;28.50;31.50
64143;DHT22;50437;51.970;5.904;2022-07-30T14:37:44;28.30;32.50
64143;DHT22;50437;51.970;5.904;2022-07-30T14:40:10;28.20;33.00
64143;DHT22;50437;51.970;5.904;2022-07-30T14:42:37;28.00;32.90
64143;DHT22;50437;51.970;5.904;2022-07-30T14:45:05;27.80;32.90
64143;DHT22;50437;51.970;5.904;2022-07-30T14:47:31;27.80;33.90
64143;DHT22;50437;51.970;5.904;2022-07-30T14:49:57;28.00;34.10
64143;DHT22;50437;51.970;5.904;2022-07-30T14:52:23;28.40;33.50
64143;DHT22;50437;51.970;5.904;2022-07-30T14:54:50;28.90;32.20
64143;DHT22;50437;51.970;5.904;2022-07-30T14:57:16;29.20;31.10
64143;DHT22;50437;51.970;5.904;2022-07-30T14:59:43;29.10;30.20
64143;DHT22;50437;51.970;5.904;2022-07-30T15:02:09;29.00;30.60
64143;DHT22;50437;51.970;5.904;2022-07-30T15:04:35;28.90;30.30
64143;DHT22;50437;51.970;5.904;2022-07-30T15:07:00;28.60;30.50
64143;DHT22;50437;51.970;5.904;2022-07-30T15:09:26;28.80;30.60
64143;DHT22;50437;51.970;5.904;2022-07-30T15:11:52;28.70;31.60
64143;DHT22;50437;51.970;5.904;2022-07-30T15:14:18;28.50;30.20
64143;DHT22;50437;51.970;5.904;2022-07-30T15:16:44;28.20;31.30
64143;DHT22;50437;51.970;5.904;2022-07-30T15:19:10;28.20;32.40
64143;DHT22;50437;51.970;5.904;2022-07-30T15:21:38;28.20;32.50
64143;DHT22;50437;51.970;5.904;2022-07-30T15:24:04;28.30;32.60
64143;DHT22;50437;51.970;5.904;2022-07-30T15:26:30;28.40;31.70
64143;DHT22;50437;51.970;5.904;2022-07-30T15:28:56;28.20;32.40
64143;DHT22;50437;51.970;5.904;2022-07-30T15:31:22;28.10;32.40
64143;DHT22;50437;51.970;5.904;2022-07-30T15:33:48;28.20;32.80
64143;DHT22;50437;51.970;5.904;2022-07-30T15:36:14;28.30;32.80
64143;DHT22;50437;51.970;5.904;2022-07-30T15:38:40;28.20;32.00
64143;DHT22;50437;51.970;5.904;2022-07-30T15:41:06;28.20;32.60
64143;DHT22;50437;51.970;5.904;2022-07-30T15:43:33;28.20;32.20
64143;DHT22;50437;51.970;5.904;2022-07-30T15:45:58;28.10;31.50
64143;DHT22;50437;51.970;5.904;2022-07-30T15:48:25;28.00;32.00
64143;DHT22;50437;51.970;5.904;2022-07-30T15:50:52;27.90;31.30
64143;DHT22;50437;51.970;5.904;2022-07-30T15:53:18;27.90;32.50
64143;DHT22;50437;51.970;5.904;2022-07-30T15:55:44;27.80;32.60
64143;DHT22;50437;51.970;5.904;2022-07-30T15:58:10;27.80;32.00
64143;DHT22;50437;51.970;5.904;2022-07-30T16:00:36;27.80;31.90
64143;DHT22;50437;51.970;5.904;2022-07-30T16:03:02;27.90;31.80
64143;DHT22;50437;51.970;5.904;2022-07-30T16:05:28;28.00;32.10
64143;DHT22;50437;51.970;5.904;2022-07-30T16:07:54;28.10;33.60
64143;DHT22;50437;51.970;5.904;2022-07-30T16:10:20;28.50;32.40
64143;DHT22;50437;51.970;5.904;2022-07-30T16:12:46;28.70;31.20